RSCO weather

Scotts Field
Fontaine, Arkansas, United States

Public forecast

Using degrees Fahrenheit for public forecast. Weather courtesy of forecast.io.

METAR (pilot weather report)

Closest report is Walnut Ridge Regional Airport, 9.0 nm (16.6 km) NW. Retrieved 2019/06/17 07:56 UTC (55 minutes ago):

KARG 170756Z AUTO 18006KT 10SM CLR 22/19 A2985 RMK AO2 SLP107 T02170194

TAF (pilot weather forecast)

Closest forecast is Jonesboro Municipal Airport, 13.3 nm (24.6 km) SE. Retrieved 2019/06/17 06:22 UTC (2 hours ago):

TAF KJBR 170520Z 1706/1806 18006KT P6SM OVC060 FM171800 18009KT P6SM VCTS OVC050CB